sensor_id;sensor_type;location;lat;lon;timestamp;P1;durP1;ratioP1;P2;durP2;ratioP2
46815;SDS011;32787;53.316;8.670;2023-01-24T00:00:43;26.65;;;13.65;;
46815;SDS011;32787;53.316;8.670;2023-01-24T00:03:09;26.55;;;13.23;;
46815;SDS011;32787;53.316;8.670;2023-01-24T00:05:41;30.05;;;13.55;;
46815;SDS011;32787;53.316;8.670;2023-01-24T00:10:33;25.75;;;12.93;;
46815;SDS011;32787;53.316;8.670;2023-01-24T00:12:59;26.20;;;14.02;;
46815;SDS011;32787;53.316;8.670;2023-01-24T00:15:25;27.80;;;12.20;;
46815;SDS011;32787;53.316;8.670;2023-01-24T00:17:51;31.27;;;13.35;;
46815;SDS011;32787;53.316;8.670;2023-01-24T00:20:16;24.92;;;11.77;;
46815;SDS011;32787;53.316;8.670;2023-01-24T00:22:42;29.35;;;13.73;;
46815;SDS011;32787;53.316;8.670;2023-01-24T00:25:07;26.02;;;13.55;;
46815;SDS011;32787;53.316;8.670;2023-01-24T00:27:33;23.00;;;12.07;;
46815;SDS011;32787;53.316;8.670;2023-01-24T00:30:00;24.95;;;12.77;;
46815;SDS011;32787;53.316;8.670;2023-01-24T00:32:26;26.45;;;12.75;;
46815;SDS011;32787;53.316;8.670;2023-01-24T00:34:52;24.17;;;12.70;;
46815;SDS011;32787;53.316;8.670;2023-01-24T00:37:17;24.25;;;12.32;;
46815;SDS011;32787;53.316;8.670;2023-01-24T00:39:43;27.85;;;12.57;;
46815;SDS011;32787;53.316;8.670;2023-01-24T00:42:08;24.77;;;12.73;;
46815;SDS011;32787;53.316;8.670;2023-01-24T00:44:34;31.30;;;13.60;;
46815;SDS011;32787;53.316;8.670;2023-01-24T00:47:00;25.20;;;13.77;;
46815;SDS011;32787;53.316;8.670;2023-01-24T00:49:25;28.02;;;13.70;;
46815;SDS011;32787;53.316;8.670;2023-01-24T00:51:51;26.73;;;13.32;;
46815;SDS011;32787;53.316;8.670;2023-01-24T00:54:16;28.23;;;13.65;;
46815;SDS011;32787;53.316;8.670;2023-01-24T00:56:42;28.40;;;13.15;;
46815;SDS011;32787;53.316;8.670;2023-01-24T00:59:08;27.38;;;14.07;;
46815;SDS011;32787;53.316;8.670;2023-01-24T01:01:33;26.75;;;14.48;;
46815;SDS011;32787;53.316;8.670;2023-01-24T01:03:59;27.80;;;13.52;;
46815;SDS011;32787;53.316;8.670;2023-01-24T01:06:24;29.40;;;14.15;;
46815;SDS011;32787;53.316;8.670;2023-01-24T01:08:50;28.70;;;14.00;;
46815;SDS011;32787;53.316;8.670;2023-01-24T01:11:17;29.02;;;15.40;;
46815;SDS011;32787;53.316;8.670;2023-01-24T01:13:43;29.38;;;14.93;;
46815;SDS011;32787;53.316;8.670;2023-01-24T01:16:13;32.67;;;15.10;;
46815;SDS011;32787;53.316;8.670;2023-01-24T01:18:44;31.80;;;15.18;;
46815;SDS011;32787;53.316;8.670;2023-01-24T01:21:12;29.77;;;15.38;;
46815;SDS011;32787;53.316;8.670;2023-01-24T01:23:39;29.20;;;14.70;;
46815;SDS011;32787;53.316;8.670;2023-01-24T01:26:06;27.95;;;13.70;;
46815;SDS011;32787;53.316;8.670;2023-01-24T01:28:34;27.33;;;15.03;;
46815;SDS011;32787;53.316;8.670;2023-01-24T01:31:00;31.42;;;14.32;;
46815;SDS011;32787;53.316;8.670;2023-01-24T01:33:27;28.45;;;14.50;;
46815;SDS011;32787;53.316;8.670;2023-01-24T01:35:53;30.67;;;14.45;;
46815;SDS011;32787;53.316;8.670;2023-01-24T01:38:19;29.45;;;15.43;;
46815;SDS011;32787;53.316;8.670;2023-01-24T01:40:45;30.33;;;15.00;;
46815;SDS011;32787;53.316;8.670;2023-01-24T01:43:15;30.95;;;13.90;;
46815;SDS011;32787;53.316;8.670;2023-01-24T01:45:46;30.70;;;14.57;;
46815;SDS011;32787;53.316;8.670;2023-01-24T01:51:35;29.50;;;13.90;;
46815;SDS011;32787;53.316;8.670;2023-01-24T01:53:44;28.65;;;15.07;;
46815;SDS011;32787;53.316;8.670;2023-01-24T01:56:26;31.92;;;15.27;;
46815;SDS011;32787;53.316;8.670;2023-01-24T01:58:57;33.35;;;15.35;;
46815;SDS011;32787;53.316;8.670;2023-01-24T02:01:27;28.88;;;15.52;;
46815;SDS011;32787;53.316;8.670;2023-01-24T02:03:53;28.25;;;14.65;;
46815;SDS011;32787;53.316;8.670;2023-01-24T02:06:44;33.17;;;14.98;;
46815;SDS011;32787;53.316;8.670;2023-01-24T02:09:27;28.70;;;14.98;;
46815;SDS011;32787;53.316;8.670;2023-01-24T02:11:58;32.22;;;15.57;;
46815;SDS011;32787;53.316;8.670;2023-01-24T02:14:27;28.15;;;14.52;;
46815;SDS011;32787;53.316;8.670;2023-01-24T02:17:17;27.08;;;13.80;;
46815;SDS011;32787;53.316;8.670;2023-01-24T02:20:06;28.58;;;14.98;;
46815;SDS011;32787;53.316;8.670;2023-01-24T02:27:57;29.60;;;15.02;;
46815;SDS011;32787;53.316;8.670;2023-01-24T02:30:23;27.80;;;14.52;;
46815;SDS011;32787;53.316;8.670;2023-01-24T02:32:49;35.13;;;15.63;;
46815;SDS011;32787;53.316;8.670;2023-01-24T02:35:25;29.13;;;14.50;;
46815;SDS011;32787;53.316;8.670;2023-01-24T02:37:56;27.83;;;14.48;;
46815;SDS011;32787;53.316;8.670;2023-01-24T02:40:24;32.10;;;15.80;;
46815;SDS011;32787;53.316;8.670;2023-01-24T02:42:54;28.08;;;14.00;;
46815;SDS011;32787;53.316;8.670;2023-01-24T02:45:23;26.65;;;14.45;;
46815;SDS011;32787;53.316;8.670;2023-01-24T02:47:53;26.13;;;13.60;;
46815;SDS011;32787;53.316;8.670;2023-01-24T02:50:21;29.77;;;15.52;;
46815;SDS011;32787;53.316;8.670;2023-01-24T02:52:49;30.80;;;16.17;;
46815;SDS011;32787;53.316;8.670;2023-01-24T02:55:34;30.15;;;15.50;;
46815;SDS011;32787;53.316;8.670;2023-01-24T02:58:24;30.67;;;14.50;;
46815;SDS011;32787;53.316;8.670;2023-01-24T03:00:50;30.83;;;15.38;;
46815;SDS011;32787;53.316;8.670;2023-01-24T03:03:15;27.52;;;14.00;;
46815;SDS011;32787;53.316;8.670;2023-01-24T03:05:41;27.25;;;13.68;;
46815;SDS011;32787;53.316;8.670;2023-01-24T03:08:22;29.50;;;14.45;;
46815;SDS011;32787;53.316;8.670;2023-01-24T03:10:53;25.00;;;13.45;;
46815;SDS011;32787;53.316;8.670;2023-01-24T03:13:19;29.20;;;14.93;;
46815;SDS011;32787;53.316;8.670;2023-01-24T03:16:04;27.85;;;14.35;;
46815;SDS011;32787;53.316;8.670;2023-01-24T03:18:48;25.08;;;13.80;;
46815;SDS011;32787;53.316;8.670;2023-01-24T03:21:33;24.25;;;14.02;;
46815;SDS011;32787;53.316;8.670;2023-01-24T03:24:18;28.77;;;13.75;;
46815;SDS011;32787;53.316;8.670;2023-01-24T03:27:02;26.45;;;14.40;;
46815;SDS011;32787;53.316;8.670;2023-01-24T03:29:46;30.40;;;14.48;;
46815;SDS011;32787;53.316;8.670;2023-01-24T03:32:31;29.35;;;14.55;;
46815;SDS011;32787;53.316;8.670;2023-01-24T03:35:15;27.30;;;14.15;;
46815;SDS011;32787;53.316;8.670;2023-01-24T03:37:41;30.80;;;14.60;;
46815;SDS011;32787;53.316;8.670;2023-01-24T03:40:25;27.50;;;13.85;;
46815;SDS011;32787;53.316;8.670;2023-01-24T03:42:52;23.52;;;13.45;;
46815;SDS011;32787;53.316;8.670;2023-01-24T03:45:22;24.98;;;13.82;;
46815;SDS011;32787;53.316;8.670;2023-01-24T03:47:50;25.52;;;12.80;;
46815;SDS011;32787;53.316;8.670;2023-01-24T03:50:39;25.02;;;12.68;;
46815;SDS011;32787;53.316;8.670;2023-01-24T03:53:27;26.67;;;13.43;;
46815;SDS011;32787;53.316;8.670;2023-01-24T03:55:55;24.42;;;12.73;;
46815;SDS011;32787;53.316;8.670;2023-01-24T03:58:22;24.50;;;12.93;;
46815;SDS011;32787;53.316;8.670;2023-01-24T04:00:49;27.10;;;14.55;;
46815;SDS011;32787;53.316;8.670;2023-01-24T04:03:16;26.35;;;13.63;;
46815;SDS011;32787;53.316;8.670;2023-01-24T04:05:42;25.38;;;13.52;;
46815;SDS011;32787;53.316;8.670;2023-01-24T04:08:07;22.85;;;11.88;;
46815;SDS011;32787;53.316;8.670;2023-01-24T04:10:33;26.25;;;12.85;;
46815;SDS011;32787;53.316;8.670;2023-01-24T04:13:00;25.13;;;13.35;;
46815;SDS011;32787;53.316;8.670;2023-01-24T04:15:27;25.90;;;13.57;;
46815;SDS011;32787;53.316;8.670;2023-01-24T04:17:54;25.90;;;13.35;;
46815;SDS011;32787;53.316;8.670;2023-01-24T04:20:21;23.52;;;12.88;;
46815;SDS011;32787;53.316;8.670;2023-01-24T04:22:47;26.52;;;12.60;;
46815;SDS011;32787;53.316;8.670;2023-01-24T04:25:13;23.83;;;12.60;;
46815;SDS011;32787;53.316;8.670;2023-01-24T04:27:38;21.80;;;11.82;;
46815;SDS011;32787;53.316;8.670;2023-01-24T04:30:08;25.25;;;13.88;;
46815;SDS011;32787;53.316;8.670;2023-01-24T04:32:35;24.98;;;12.35;;
46815;SDS011;32787;53.316;8.670;2023-01-24T04:35:01;23.42;;;12.65;;
46815;SDS011;32787;53.316;8.670;2023-01-24T04:37:31;23.45;;;13.38;;
46815;SDS011;32787;53.316;8.670;2023-01-24T04:39:58;27.02;;;13.95;;
46815;SDS011;32787;53.316;8.670;2023-01-24T04:42:26;23.85;;;12.88;;
46815;SDS011;32787;53.316;8.670;2023-01-24T04:44:51;23.40;;;12.13;;
46815;SDS011;32787;53.316;8.670;2023-01-24T04:47:17;25.23;;;13.35;;
46815;SDS011;32787;53.316;8.670;2023-01-24T04:49:43;22.67;;;12.50;;
46815;SDS011;32787;53.316;8.670;2023-01-24T04:52:10;22.60;;;12.55;;
46815;SDS011;32787;53.316;8.670;2023-01-24T04:54:37;26.15;;;12.88;;
46815;SDS011;32787;53.316;8.670;2023-01-24T04:57:06;23.15;;;12.15;;
46815;SDS011;32787;53.316;8.670;2023-01-24T04:59:32;23.95;;;13.13;;
46815;SDS011;32787;53.316;8.670;2023-01-24T05:01:58;22.13;;;11.93;;
46815;SDS011;32787;53.316;8.670;2023-01-24T05:04:23;26.08;;;13.35;;
46815;SDS011;32787;53.316;8.670;2023-01-24T05:06:49;23.23;;;12.63;;
46815;SDS011;32787;53.316;8.670;2023-01-24T05:09:15;23.08;;;12.30;;
46815;SDS011;32787;53.316;8.670;2023-01-24T05:11:40;23.52;;;13.05;;
46815;SDS011;32787;53.316;8.670;2023-01-24T05:14:09;26.17;;;13.23;;
46815;SDS011;32787;53.316;8.670;2023-01-24T05:16:35;25.52;;;13.88;;
46815;SDS011;32787;53.316;8.670;2023-01-24T05:19:01;22.60;;;12.32;;
46815;SDS011;32787;53.316;8.670;2023-01-24T05:21:27;26.88;;;12.63;;
46815;SDS011;32787;53.316;8.670;2023-01-24T05:23:53;24.35;;;12.85;;
46815;SDS011;32787;53.316;8.670;2023-01-24T05:26:19;24.73;;;13.18;;
46815;SDS011;32787;53.316;8.670;2023-01-24T05:28:46;28.83;;;12.40;;
46815;SDS011;32787;53.316;8.670;2023-01-24T05:31:12;25.30;;;12.82;;
46815;SDS011;32787;53.316;8.670;2023-01-24T05:33:38;23.13;;;11.77;;
46815;SDS011;32787;53.316;8.670;2023-01-24T05:36:08;25.40;;;12.00;;
46815;SDS011;32787;53.316;8.670;2023-01-24T05:38:39;22.83;;;12.02;;
46815;SDS011;32787;53.316;8.670;2023-01-24T05:41:07;22.95;;;11.80;;
46815;SDS011;32787;53.316;8.670;2023-01-24T05:43:35;23.55;;;12.25;;
46815;SDS011;32787;53.316;8.670;2023-01-24T05:46:05;20.50;;;11.07;;
46815;SDS011;32787;53.316;8.670;2023-01-24T05:48:32;21.40;;;11.13;;
46815;SDS011;32787;53.316;8.670;2023-01-24T05:50:59;19.50;;;10.20;;
46815;SDS011;32787;53.316;8.670;2023-01-24T05:53:29;19.38;;;10.77;;
46815;SDS011;32787;53.316;8.670;2023-01-24T05:55:57;19.58;;;10.82;;
46815;SDS011;32787;53.316;8.670;2023-01-24T05:58:28;21.95;;;11.57;;
46815;SDS011;32787;53.316;8.670;2023-01-24T06:00:58;20.10;;;11.02;;
46815;SDS011;32787;53.316;8.670;2023-01-24T06:03:23;21.55;;;12.10;;
46815;SDS011;32787;53.316;8.670;2023-01-24T06:05:50;23.45;;;12.98;;
46815;SDS011;32787;53.316;8.670;2023-01-24T06:08:17;25.23;;;12.82;;
46815;SDS011;32787;53.316;8.670;2023-01-24T06:10:44;21.63;;;11.52;;
46815;SDS011;32787;53.316;8.670;2023-01-24T06:13:11;26.38;;;12.10;;
46815;SDS011;32787;53.316;8.670;2023-01-24T06:15:37;22.45;;;12.18;;
46815;SDS011;32787;53.316;8.670;2023-01-24T06:18:03;23.85;;;12.43;;
46815;SDS011;32787;53.316;8.670;2023-01-24T06:20:30;24.23;;;12.48;;
46815;SDS011;32787;53.316;8.670;2023-01-24T06:22:59;34.15;;;18.10;;
46815;SDS011;32787;53.316;8.670;2023-01-24T06:25:29;26.38;;;12.88;;
46815;SDS011;32787;53.316;8.670;2023-01-24T06:27:54;21.67;;;11.70;;
46815;SDS011;32787;53.316;8.670;2023-01-24T06:30:20;23.75;;;12.48;;
46815;SDS011;32787;53.316;8.670;2023-01-24T06:35:37;28.77;;;14.00;;
46815;SDS011;32787;53.316;8.670;2023-01-24T06:38:22;27.77;;;13.60;;
46815;SDS011;32787;53.316;8.670;2023-01-24T06:40:51;25.63;;;13.77;;
46815;SDS011;32787;53.316;8.670;2023-01-24T06:43:20;24.17;;;13.68;;
46815;SDS011;32787;53.316;8.670;2023-01-24T06:45:46;24.92;;;13.13;;
46815;SDS011;32787;53.316;8.670;2023-01-24T06:48:11;28.23;;;13.35;;
46815;SDS011;32787;53.316;8.670;2023-01-24T06:50:37;25.45;;;12.55;;
46815;SDS011;32787;53.316;8.670;2023-01-24T06:53:03;24.33;;;12.73;;
46815;SDS011;32787;53.316;8.670;2023-01-24T06:55:29;26.77;;;12.70;;
46815;SDS011;32787;53.316;8.670;2023-01-24T06:57:55;24.38;;;12.85;;
46815;SDS011;32787;53.316;8.670;2023-01-24T07:00:21;24.38;;;13.15;;
46815;SDS011;32787;53.316;8.670;2023-01-24T07:02:47;28.08;;;13.48;;
46815;SDS011;32787;53.316;8.670;2023-01-24T07:05:13;27.23;;;14.75;;
46815;SDS011;32787;53.316;8.670;2023-01-24T07:07:38;27.15;;;13.02;;
46815;SDS011;32787;53.316;8.670;2023-01-24T07:10:05;23.48;;;12.85;;
46815;SDS011;32787;53.316;8.670;2023-01-24T07:12:31;25.23;;;13.30;;
46815;SDS011;32787;53.316;8.670;2023-01-24T07:14:57;27.58;;;13.85;;
46815;SDS011;32787;53.316;8.670;2023-01-24T07:17:22;23.38;;;13.00;;
46815;SDS011;32787;53.316;8.670;2023-01-24T07:19:48;24.58;;;13.07;;
46815;SDS011;32787;53.316;8.670;2023-01-24T07:22:14;23.35;;;13.02;;
46815;SDS011;32787;53.316;8.670;2023-01-24T07:24:40;24.77;;;13.25;;
46815;SDS011;32787;53.316;8.670;2023-01-24T07:27:07;26.63;;;13.52;;
46815;SDS011;32787;53.316;8.670;2023-01-24T07:29:33;26.08;;;12.60;;
46815;SDS011;32787;53.316;8.670;2023-01-24T07:31:59;26.65;;;13.50;;
46815;SDS011;32787;53.316;8.670;2023-01-24T07:34:24;27.58;;;14.48;;
46815;SDS011;32787;53.316;8.670;2023-01-24T07:36:50;26.10;;;13.50;;
46815;SDS011;32787;53.316;8.670;2023-01-24T07:39:16;28.08;;;13.40;;
46815;SDS011;32787;53.316;8.670;2023-01-24T07:41:41;25.55;;;14.18;;
46815;SDS011;32787;53.316;8.670;2023-01-24T07:44:09;25.90;;;13.35;;
46815;SDS011;32787;53.316;8.670;2023-01-24T07:46:35;25.45;;;13.48;;
46815;SDS011;32787;53.316;8.670;2023-01-24T07:49:01;27.50;;;15.07;;
46815;SDS011;32787;53.316;8.670;2023-01-24T07:51:27;26.33;;;13.73;;
46815;SDS011;32787;53.316;8.670;2023-01-24T07:53:53;26.73;;;14.18;;
46815;SDS011;32787;53.316;8.670;2023-01-24T07:56:19;23.92;;;13.18;;
46815;SDS011;32787;53.316;8.670;2023-01-24T07:58:45;26.25;;;13.73;;
46815;SDS011;32787;53.316;8.670;2023-01-24T08:01:20;24.20;;;13.48;;
46815;SDS011;32787;53.316;8.670;2023-01-24T08:03:47;24.10;;;13.35;;
46815;SDS011;32787;53.316;8.670;2023-01-24T08:06:13;25.73;;;13.50;;
46815;SDS011;32787;53.316;8.670;2023-01-24T08:08:38;24.13;;;11.90;;
46815;SDS011;32787;53.316;8.670;2023-01-24T08:11:04;23.77;;;11.93;;
46815;SDS011;32787;53.316;8.670;2023-01-24T08:13:29;22.70;;;12.02;;
46815;SDS011;32787;53.316;8.670;2023-01-24T08:15:55;25.20;;;13.30;;
46815;SDS011;32787;53.316;8.670;2023-01-24T08:18:20;25.48;;;12.88;;
46815;SDS011;32787;53.316;8.670;2023-01-24T08:20:46;23.92;;;13.00;;
46815;SDS011;32787;53.316;8.670;2023-01-24T08:23:13;23.48;;;12.20;;
46815;SDS011;32787;53.316;8.670;2023-01-24T08:25:39;23.15;;;12.85;;
46815;SDS011;32787;53.316;8.670;2023-01-24T08:28:04;24.08;;;12.85;;
46815;SDS011;32787;53.316;8.670;2023-01-24T08:30:30;26.15;;;13.55;;
46815;SDS011;32787;53.316;8.670;2023-01-24T08:33:02;26.00;;;13.00;;
46815;SDS011;32787;53.316;8.670;2023-01-24T08:35:30;23.80;;;12.27;;
46815;SDS011;32787;53.316;8.670;2023-01-24T08:37:57;23.05;;;12.80;;
46815;SDS011;32787;53.316;8.670;2023-01-24T08:40:23;24.63;;;12.90;;
46815;SDS011;32787;53.316;8.670;2023-01-24T08:42:50;24.20;;;12.80;;
46815;SDS011;32787;53.316;8.670;2023-01-24T08:45:15;22.42;;;11.45;;
46815;SDS011;32787;53.316;8.670;2023-01-24T08:47:41;24.80;;;12.68;;
46815;SDS011;32787;53.316;8.670;2023-01-24T08:50:07;26.42;;;12.27;;
46815;SDS011;32787;53.316;8.670;2023-01-24T08:52:33;26.60;;;13.57;;
46815;SDS011;32787;53.316;8.670;2023-01-24T08:54:59;22.17;;;12.73;;
46815;SDS011;32787;53.316;8.670;2023-01-24T08:57:25;22.23;;;12.35;;
46815;SDS011;32787;53.316;8.670;2023-01-24T08:59:50;24.92;;;13.25;;
46815;SDS011;32787;53.316;8.670;2023-01-24T09:02:16;23.58;;;12.57;;
46815;SDS011;32787;53.316;8.670;2023-01-24T09:04:42;22.73;;;11.27;;
46815;SDS011;32787;53.316;8.670;2023-01-24T09:07:08;23.83;;;11.85;;
46815;SDS011;32787;53.316;8.670;2023-01-24T09:09:36;28.30;;;12.20;;
46815;SDS011;32787;53.316;8.670;2023-01-24T09:12:01;24.23;;;11.93;;
46815;SDS011;32787;53.316;8.670;2023-01-24T09:14:27;22.08;;;11.52;;
46815;SDS011;32787;53.316;8.670;2023-01-24T09:16:53;22.75;;;11.75;;
46815;SDS011;32787;53.316;8.670;2023-01-24T09:19:19;21.50;;;11.38;;
46815;SDS011;32787;53.316;8.670;2023-01-24T09:21:44;20.20;;;11.13;;
46815;SDS011;32787;53.316;8.670;2023-01-24T09:24:12;22.50;;;12.20;;
46815;SDS011;32787;53.316;8.670;2023-01-24T09:26:38;22.38;;;12.13;;
46815;SDS011;32787;53.316;8.670;2023-01-24T09:29:04;22.92;;;11.95;;
46815;SDS011;32787;53.316;8.670;2023-01-24T09:31:30;23.55;;;12.30;;
46815;SDS011;32787;53.316;8.670;2023-01-24T09:33:55;29.85;;;13.82;;
46815;SDS011;32787;53.316;8.670;2023-01-24T09:36:21;27.15;;;13.70;;
46815;SDS011;32787;53.316;8.670;2023-01-24T09:38:46;25.10;;;12.88;;
46815;SDS011;32787;53.316;8.670;2023-01-24T09:48:43;23.60;;;12.45;;
46815;SDS011;32787;53.316;8.670;2023-01-24T09:51:24;22.60;;;11.38;;
46815;SDS011;32787;53.316;8.670;2023-01-24T09:53:57;24.80;;;12.20;;
46815;SDS011;32787;53.316;8.670;2023-01-24T09:56:35;24.05;;;11.52;;
46815;SDS011;32787;53.316;8.670;2023-01-24T10:01:35;21.67;;;11.93;;
46815;SDS011;32787;53.316;8.670;2023-01-24T10:04:04;22.67;;;12.63;;
46815;SDS011;32787;53.316;8.670;2023-01-24T10:06:35;23.45;;;11.93;;
46815;SDS011;32787;53.316;8.670;2023-01-24T10:17:11;22.60;;;11.80;;
46815;SDS011;32787;53.316;8.670;2023-01-24T10:28:27;20.50;;;11.23;;
46815;SDS011;32787;53.316;8.670;2023-01-24T10:33:50;26.25;;;12.75;;
46815;SDS011;32787;53.316;8.670;2023-01-24T10:36:24;22.35;;;11.15;;
46815;SDS011;32787;53.316;8.670;2023-01-24T10:39:08;22.80;;;11.80;;
46815;SDS011;32787;53.316;8.670;2023-01-24T10:41:35;23.75;;;11.63;;
46815;SDS011;32787;53.316;8.670;2023-01-24T10:44:03;23.75;;;12.70;;
46815;SDS011;32787;53.316;8.670;2023-01-24T10:49:35;22.45;;;11.57;;
46815;SDS011;32787;53.316;8.670;2023-01-24T10:57:27;22.67;;;11.80;;
46815;SDS011;32787;53.316;8.670;2023-01-24T11:00:03;22.33;;;12.13;;
46815;SDS011;32787;53.316;8.670;2023-01-24T11:02:31;23.58;;;12.73;;
46815;SDS011;32787;53.316;8.670;2023-01-24T11:05:04;23.30;;;11.73;;
46815;SDS011;32787;53.316;8.670;2023-01-24T11:07:34;22.67;;;11.80;;
46815;SDS011;32787;53.316;8.670;2023-01-24T11:12:46;22.15;;;11.98;;
46815;SDS011;32787;53.316;8.670;2023-01-24T11:15:20;22.50;;;12.13;;
46815;SDS011;32787;53.316;8.670;2023-01-24T11:18:32;22.23;;;12.88;;
46815;SDS011;32787;53.316;8.670;2023-01-24T11:20:44;24.08;;;11.40;;
46815;SDS011;32787;53.316;8.670;2023-01-24T11:23:15;23.63;;;12.23;;
46815;SDS011;32787;53.316;8.670;2023-01-24T11:26:05;25.35;;;12.57;;
46815;SDS011;32787;53.316;8.670;2023-01-24T11:28:43;20.40;;;11.65;;
46815;SDS011;32787;53.316;8.670;2023-01-24T11:31:17;20.92;;;11.10;;
46815;SDS011;32787;53.316;8.670;2023-01-24T11:37:11;21.35;;;11.05;;
46815;SDS011;32787;53.316;8.670;2023-01-24T11:45:43;22.05;;;12.35;;
46815;SDS011;32787;53.316;8.670;2023-01-24T11:54:25;26.63;;;11.82;;
46815;SDS011;32787;53.316;8.670;2023-01-24T11:57:15;25.38;;;12.00;;
46815;SDS011;32787;53.316;8.670;2023-01-24T12:02:41;23.80;;;12.48;;
46815;SDS011;32787;53.316;8.670;2023-01-24T12:08:41;20.85;;;10.93;;
46815;SDS011;32787;53.316;8.670;2023-01-24T12:16:35;22.05;;;11.55;;
46815;SDS011;32787;53.316;8.670;2023-01-24T12:22:27;25.10;;;13.85;;
46815;SDS011;32787;53.316;8.670;2023-01-24T12:25:05;23.48;;;12.55;;
46815;SDS011;32787;53.316;8.670;2023-01-24T12:27:45;27.08;;;13.02;;
46815;SDS011;32787;53.316;8.670;2023-01-24T12:30:22;22.33;;;11.88;;
46815;SDS011;32787;53.316;8.670;2023-01-24T12:35:27;23.80;;;11.48;;
46815;SDS011;32787;53.316;8.670;2023-01-24T12:43:55;22.80;;;11.75;;
46815;SDS011;32787;53.316;8.670;2023-01-24T12:51:56;22.27;;;12.02;;
46815;SDS011;32787;53.316;8.670;2023-01-24T12:56:59;22.38;;;11.80;;
46815;SDS011;32787;53.316;8.670;2023-01-24T12:59:38;23.08;;;11.48;;
46815;SDS011;32787;53.316;8.670;2023-01-24T13:07:30;23.77;;;11.68;;
46815;SDS011;32787;53.316;8.670;2023-01-24T13:10:22;24.08;;;11.02;;
46815;SDS011;32787;53.316;8.670;2023-01-24T13:12:56;21.75;;;11.13;;
46815;SDS011;32787;53.316;8.670;2023-01-24T13:15:31;25.88;;;11.77;;
46815;SDS011;32787;53.316;8.670;2023-01-24T13:21:03;23.10;;;11.38;;
46815;SDS011;32787;53.316;8.670;2023-01-24T13:31:56;22.77;;;11.20;;
46815;SDS011;32787;53.316;8.670;2023-01-24T13:34:31;24.55;;;11.98;;
46815;SDS011;32787;53.316;8.670;2023-01-24T13:37:00;22.77;;;11.63;;
46815;SDS011;32787;53.316;8.670;2023-01-24T13:39:32;26.27;;;12.73;;
46815;SDS011;32787;53.316;8.670;2023-01-24T13:42:23;24.42;;;12.27;;
46815;SDS011;32787;53.316;8.670;2023-01-24T13:44:56;22.38;;;11.68;;
46815;SDS011;32787;53.316;8.670;2023-01-24T13:47:22;23.55;;;11.15;;
46815;SDS011;32787;53.316;8.670;2023-01-24T13:54:56;20.15;;;9.93;;
46815;SDS011;32787;53.316;8.670;2023-01-24T13:57:23;21.27;;;11.13;;
46815;SDS011;32787;53.316;8.670;2023-01-24T14:02:35;23.23;;;11.00;;
46815;SDS011;32787;53.316;8.670;2023-01-24T14:07:57;23.20;;;10.65;;
46815;SDS011;32787;53.316;8.670;2023-01-24T14:10:36;21.55;;;11.20;;
46815;SDS011;32787;53.316;8.670;2023-01-24T14:13:04;21.40;;;10.73;;
46815;SDS011;32787;53.316;8.670;2023-01-24T14:15:37;22.23;;;11.40;;
46815;SDS011;32787;53.316;8.670;2023-01-24T14:21:12;26.17;;;12.60;;
46815;SDS011;32787;53.316;8.670;2023-01-24T14:23:40;22.13;;;10.23;;
46815;SDS011;32787;53.316;8.670;2023-01-24T14:26:06;20.30;;;10.27;;
46815;SDS011;32787;53.316;8.670;2023-01-24T14:28:40;22.13;;;11.63;;
46815;SDS011;32787;53.316;8.670;2023-01-24T14:31:15;21.90;;;10.82;;
46815;SDS011;32787;53.316;8.670;2023-01-24T14:33:54;20.98;;;10.63;;
46815;SDS011;32787;53.316;8.670;2023-01-24T14:36:33;21.30;;;10.77;;
46815;SDS011;32787;53.316;8.670;2023-01-24T14:41:48;22.50;;;11.68;;
46815;SDS011;32787;53.316;8.670;2023-01-24T14:44:26;23.52;;;12.27;;
46815;SDS011;32787;53.316;8.670;2023-01-24T14:47:01;24.13;;;11.93;;
46815;SDS011;32787;53.316;8.670;2023-01-24T14:51:59;24.77;;;12.63;;
46815;SDS011;32787;53.316;8.670;2023-01-24T14:54:27;23.27;;;12.18;;
46815;SDS011;32787;53.316;8.670;2023-01-24T14:56:53;24.98;;;11.43;;
46815;SDS011;32787;53.316;8.670;2023-01-24T14:59:19;22.60;;;11.38;;
46815;SDS011;32787;53.316;8.670;2023-01-24T15:01:50;22.30;;;11.32;;
46815;SDS011;32787;53.316;8.670;2023-01-24T15:04:29;25.92;;;11.65;;
46815;SDS011;32787;53.316;8.670;2023-01-24T15:09:51;25.35;;;12.15;;
46815;SDS011;32787;53.316;8.670;2023-01-24T15:14:51;22.85;;;11.43;;
46815;SDS011;32787;53.316;8.670;2023-01-24T15:17:20;21.13;;;11.00;;
46815;SDS011;32787;53.316;8.670;2023-01-24T15:19:49;21.75;;;11.35;;
46815;SDS011;32787;53.316;8.670;2023-01-24T15:22:21;21.77;;;11.35;;
46815;SDS011;32787;53.316;8.670;2023-01-24T15:24:49;24.58;;;11.63;;
46815;SDS011;32787;53.316;8.670;2023-01-24T15:27:28;22.52;;;10.90;;
46815;SDS011;32787;53.316;8.670;2023-01-24T15:33:09;21.00;;;11.00;;
46815;SDS011;32787;53.316;8.670;2023-01-24T15:35:38;23.77;;;12.10;;
46815;SDS011;32787;53.316;8.670;2023-01-24T15:38:16;23.58;;;10.98;;
46815;SDS011;32787;53.316;8.670;2023-01-24T15:49:15;23.27;;;12.15;;
46815;SDS011;32787;53.316;8.670;2023-01-24T15:54:34;27.70;;;13.80;;
46815;SDS011;32787;53.316;8.670;2023-01-24T15:57:26;20.88;;;11.88;;
46815;SDS011;32787;53.316;8.670;2023-01-24T15:59:59;27.05;;;12.00;;
46815;SDS011;32787;53.316;8.670;2023-01-24T16:02:38;24.15;;;11.48;;
46815;SDS011;32787;53.316;8.670;2023-01-24T16:05:14;22.98;;;11.07;;
46815;SDS011;32787;53.316;8.670;2023-01-24T16:07:41;21.65;;;11.40;;
46815;SDS011;32787;53.316;8.670;2023-01-24T16:10:08;22.00;;;10.95;;
46815;SDS011;32787;53.316;8.670;2023-01-24T16:12:38;22.08;;;11.95;;
46815;SDS011;32787;53.316;8.670;2023-01-24T16:15:04;23.55;;;12.38;;
46815;SDS011;32787;53.316;8.670;2023-01-24T16:17:30;22.50;;;11.93;;
46815;SDS011;32787;53.316;8.670;2023-01-24T16:19:55;23.30;;;11.15;;
46815;SDS011;32787;53.316;8.670;2023-01-24T16:22:21;21.77;;;12.50;;
46815;SDS011;32787;53.316;8.670;2023-01-24T16:24:48;23.40;;;11.65;;
46815;SDS011;32787;53.316;8.670;2023-01-24T16:27:13;22.73;;;11.70;;
46815;SDS011;32787;53.316;8.670;2023-01-24T16:29:40;24.33;;;12.68;;
46815;SDS011;32787;53.316;8.670;2023-01-24T16:32:15;22.83;;;12.40;;
46815;SDS011;32787;53.316;8.670;2023-01-24T16:34:48;25.15;;;12.88;;
46815;SDS011;32787;53.316;8.670;2023-01-24T16:37:14;26.42;;;13.48;;
46815;SDS011;32787;53.316;8.670;2023-01-24T16:39:40;25.02;;;13.15;;
46815;SDS011;32787;53.316;8.670;2023-01-24T16:42:07;23.85;;;13.27;;
46815;SDS011;32787;53.316;8.670;2023-01-24T16:44:37;27.55;;;13.30;;
46815;SDS011;32787;53.316;8.670;2023-01-24T16:47:03;23.88;;;13.30;;
46815;SDS011;32787;53.316;8.670;2023-01-24T16:49:28;25.80;;;12.38;;
46815;SDS011;32787;53.316;8.670;2023-01-24T16:51:54;26.13;;;13.50;;
46815;SDS011;32787;53.316;8.670;2023-01-24T16:54:20;29.27;;;12.52;;
46815;SDS011;32787;53.316;8.670;2023-01-24T16:56:45;25.50;;;13.57;;
46815;SDS011;32787;53.316;8.670;2023-01-24T16:59:12;29.88;;;14.85;;
46815;SDS011;32787;53.316;8.670;2023-01-24T17:01:37;25.10;;;13.80;;
46815;SDS011;32787;53.316;8.670;2023-01-24T17:04:04;25.55;;;14.05;;
46815;SDS011;32787;53.316;8.670;2023-01-24T17:06:30;24.75;;;13.38;;
46815;SDS011;32787;53.316;8.670;2023-01-24T17:08:56;29.17;;;15.48;;
46815;SDS011;32787;53.316;8.670;2023-01-24T17:11:22;28.35;;;14.63;;